createdAt,value
2022-10-18T00:02:30.220Z,72.85
2022-10-18T00:07:31.888Z,74.30
2022-10-18T00:12:37.392Z,74.95
2022-10-18T00:17:39.454Z,75.52
2022-10-18T00:22:41.474Z,75.36
2022-10-18T00:27:42.853Z,75.20
2022-10-18T00:32:44.195Z,75.27
2022-10-18T00:37:45.584Z,75.43
2022-10-18T00:42:47.015Z,75.41
2022-10-18T00:48:02.398Z,75.82
2022-10-18T00:53:08.868Z,75.82
2022-10-18T00:58:12.476Z,76.12
2022-10-18T01:03:13.950Z,76.43
2022-10-18T01:08:38.579Z,77.25
2022-10-18T01:13:54.932Z,77.71
2022-10-18T01:19:26.322Z,77.87
2022-10-18T01:30:34.532Z,78.51
2022-10-18T01:35:42.684Z,78.43
2022-10-18T01:40:47.728Z,79.23
2022-10-18T01:45:49.677Z,78.67
2022-10-18T01:50:52.433Z,78.21
2022-10-18T01:56:25.813Z,78.20
2022-10-18T02:01:52.547Z,78.08
2022-10-18T02:07:02.795Z,77.95
2022-10-18T02:12:07.334Z,78.18
2022-10-18T02:17:12.004Z,78.45
2022-10-18T02:22:14.927Z,78.81
2022-10-18T02:27:16.761Z,78.50
2022-10-18T02:32:25.791Z,78.18
2022-10-18T02:37:32.669Z,78.00
2022-10-18T02:42:39.900Z,78.18
2022-10-18T02:47:41.413Z,78.07
2022-10-18T02:52:42.776Z,78.10
2022-10-18T02:57:44.110Z,77.99
2022-10-18T03:02:45.489Z,78.00
2022-10-18T03:07:46.820Z,77.89
2022-10-18T03:12:48.185Z,77.74
2022-10-18T03:17:49.655Z,78.26
2022-10-18T03:22:51.036Z,78.14
2022-10-18T03:27:52.375Z,78.11
2022-10-18T03:32:54.522Z,78.03
2022-10-18T03:37:55.856Z,79.27
2022-10-18T03:42:57.207Z,80.51
2022-10-18T03:47:58.593Z,81.13
2022-10-18T03:52:59.957Z,81.11
2022-10-18T03:58:01.330Z,81.17
2022-10-18T04:03:02.724Z,80.79
2022-10-18T04:08:04.653Z,81.08
2022-10-18T04:13:07.123Z,80.65
2022-10-18T04:18:08.541Z,80.82
2022-10-18T04:23:09.923Z,80.91
2022-10-18T04:28:11.420Z,80.43
2022-10-18T04:33:12.746Z,80.41
2022-10-18T04:38:14.679Z,81.71
2022-10-18T04:43:16.256Z,81.12
2022-10-18T04:48:18.203Z,80.75
2022-10-18T04:53:19.653Z,80.66
2022-10-18T04:58:21.165Z,80.38
2022-10-18T05:03:22.683Z,80.56
2022-10-18T05:08:24.059Z,80.51
2022-10-18T05:13:25.897Z,81.00
2022-10-18T05:18:27.355Z,81.09
2022-10-18T05:23:28.773Z,80.82
2022-10-18T05:28:45.660Z,81.03
2022-10-18T05:33:47.124Z,80.44
2022-10-18T05:38:48.463Z,80.57
2022-10-18T05:43:49.813Z,80.62
2022-10-18T05:48:51.611Z,80.46
2022-10-18T05:58:27.670Z,80.58
2022-10-18T06:03:30.527Z,80.49
2022-10-18T06:08:32.942Z,81.00
2022-10-18T06:13:34.311Z,80.86
2022-10-18T06:18:35.784Z,81.34
2022-10-18T06:23:37.209Z,81.70
2022-10-18T06:28:38.810Z,81.76
2022-10-18T06:33:40.502Z,82.00
2022-10-18T06:38:42.105Z,81.75
2022-10-18T06:43:44.535Z,81.53
2022-10-18T06:48:46.175Z,82.01
2022-10-18T06:53:59.571Z,82.27
2022-10-18T06:59:07.488Z,82.55
2022-10-18T07:04:08.844Z,83.03
2022-10-18T07:09:10.319Z,83.14
2022-10-18T07:14:16.103Z,82.84
2022-10-18T07:19:17.776Z,82.64
2022-10-18T07:24:19.160Z,82.24
2022-10-18T07:29:20.504Z,82.22
2022-10-18T07:34:21.936Z,81.89
2022-10-18T07:39:23.346Z,83.17
2022-10-18T07:44:24.672Z,82.53
2022-10-18T07:49:26.042Z,83.16
2022-10-18T07:54:27.404Z,83.08
2022-10-18T07:59:28.783Z,82.65
2022-10-18T08:04:30.160Z,82.38
2022-10-18T08:09:31.548Z,82.45
2022-10-18T08:14:32.955Z,82.57
2022-10-18T08:19:34.355Z,82.48
2022-10-18T08:24:35.705Z,82.52
2022-10-18T08:29:37.223Z,82.14
2022-10-18T08:39:44.993Z,82.23
2022-10-18T08:44:51.381Z,82.25
2022-10-18T08:50:04.354Z,82.15
2022-10-18T08:55:20.561Z,82.14
2022-10-18T09:00:24.962Z,81.86
2022-10-18T09:05:36.690Z,82.05
2022-10-18T09:10:46.885Z,82.43
2022-10-18T09:16:01.242Z,82.23
2022-10-18T09:21:31.608Z,82.06
2022-10-18T09:26:48.960Z,82.15
2022-10-18T09:32:03.667Z,81.69
2022-10-18T09:37:09.467Z,82.36
2022-10-18T09:42:36.027Z,81.71
2022-10-18T09:47:43.839Z,81.48
2022-10-18T09:52:51.743Z,81.48
2022-10-18T09:58:00.672Z,81.06
2022-10-18T10:03:06.937Z,81.06
2022-10-18T10:08:08.890Z,81.10
2022-10-18T10:13:23.045Z,81.09
2022-10-18T10:18:28.346Z,81.16
2022-10-18T10:23:36.052Z,80.76
2022-10-18T10:28:46.191Z,80.50
2022-10-18T10:33:48.088Z,80.40
2022-10-18T10:39:24.962Z,81.29
2022-10-18T10:44:34.335Z,81.02
2022-10-18T10:49:47.987Z,80.65
2022-10-18T10:54:52.147Z,80.83
2022-10-18T10:59:56.377Z,80.50
2022-10-18T11:05:25.688Z,80.00
2022-10-18T11:10:34.640Z,79.24
2022-10-18T11:15:41.658Z,78.79
2022-10-18T11:21:01.559Z,79.45
2022-10-18T11:26:11.882Z,79.33
2022-10-18T11:31:46.340Z,78.45
2022-10-18T11:37:22.921Z,78.62
2022-10-18T11:42:47.662Z,78.64
2022-10-18T11:48:23.855Z,78.31
2022-10-18T11:53:50.961Z,77.72
2022-10-18T11:59:25.936Z,77.57
2022-10-18T12:04:34.738Z,76.66
2022-10-18T12:09:43.262Z,76.86
2022-10-18T12:14:59.266Z,76.16
2022-10-18T12:20:07.634Z,75.86
2022-10-18T12:25:17.816Z,75.42
2022-10-18T12:30:37.582Z,75.19
2022-10-18T12:36:05.908Z,74.65
2022-10-18T12:41:07.568Z,74.47
2022-10-18T12:46:13.794Z,74.17
2022-10-18T12:51:22.867Z,73.85
2022-10-18T12:56:34.064Z,73.76
2022-10-18T13:01:50.898Z,73.76
2022-10-18T13:07:19.753Z,73.84
2022-10-18T13:12:21.080Z,73.97
2022-10-18T13:17:31.558Z,73.51
2022-10-18T13:22:48.256Z,73.47
2022-10-18T13:28:02.254Z,73.29
2022-10-18T13:33:33.110Z,73.46
2022-10-18T13:38:57.609Z,73.14
2022-10-18T13:44:11.458Z,72.01
2022-10-18T13:49:22.087Z,71.29
2022-10-18T13:54:38.026Z,70.61
2022-10-18T13:59:50.346Z,70.38
2022-10-18T14:05:24.655Z,70.29
2022-10-18T14:11:02.373Z,70.12
2022-10-18T14:16:16.772Z,70.23
2022-10-18T14:21:31.380Z,70.03
2022-10-18T14:26:33.055Z,70.19
2022-10-18T14:31:35.052Z,69.44
2022-10-18T14:36:41.081Z,69.33
2022-10-18T14:41:54.511Z,68.64
2022-10-18T14:47:17.909Z,68.94
2022-10-18T14:52:26.057Z,68.50
2022-10-18T14:57:31.120Z,68.54
2022-10-18T15:02:36.995Z,68.24
2022-10-18T15:07:38.645Z,68.76
2022-10-18T15:13:04.526Z,68.64
2022-10-18T15:18:05.338Z,68.69
2022-10-18T15:23:23.549Z,68.89
2022-10-18T15:28:31.146Z,69.06
2022-10-18T15:33:36.302Z,69.19
2022-10-18T15:38:38.193Z,68.84
2022-10-18T15:43:40.233Z,68.96
2022-10-18T15:48:42.083Z,69.44
2022-10-18T15:53:49.274Z,69.24
2022-10-18T15:58:51.354Z,69.33
2022-10-18T16:08:59.312Z,69.35
2022-10-18T16:14:00.935Z,69.60
2022-10-18T16:19:03.350Z,70.35
2022-10-18T16:24:05.566Z,70.72
2022-10-18T16:29:11.251Z,70.74
2022-10-18T16:34:14.685Z,71.50
2022-10-18T16:39:18.029Z,71.70
2022-10-18T16:44:19.536Z,72.03
2022-10-18T16:49:24.374Z,72.17
2022-10-18T16:54:26.262Z,72.72
2022-10-18T16:59:30.330Z,73.40
2022-10-18T17:04:31.708Z,73.60
2022-10-18T17:09:34.872Z,73.67
2022-10-18T17:14:36.862Z,74.10
2022-10-18T17:19:38.295Z,74.40
2022-10-18T17:24:39.633Z,74.46
2022-10-18T17:29:41.793Z,74.57
2022-10-18T17:34:43.194Z,74.63
2022-10-18T17:39:44.541Z,74.85
2022-10-18T17:44:46.158Z,74.93
2022-10-18T17:49:47.764Z,75.04
2022-10-18T17:54:49.121Z,75.18
2022-10-18T17:59:50.557Z,75.55
2022-10-18T18:04:54.195Z,75.64
2022-10-18T18:09:55.557Z,75.82
2022-10-18T18:14:56.917Z,75.66
2022-10-18T18:19:58.271Z,76.07
2022-10-18T18:24:59.717Z,76.35
2022-10-18T18:30:01.156Z,76.13
2022-10-18T18:35:03.451Z,76.22
2022-10-18T18:40:05.230Z,76.60
2022-10-18T18:45:06.937Z,76.50
2022-10-18T18:50:08.593Z,76.65
2022-10-18T18:55:09.969Z,76.40
2022-10-18T19:00:13.249Z,76.60
2022-10-18T19:05:14.731Z,76.50
2022-10-18T19:10:16.175Z,76.62
2022-10-18T19:15:18.731Z,76.67
2022-10-18T19:20:20.101Z,76.96
2022-10-18T19:25:24.750Z,76.79
2022-10-18T19:30:28.295Z,76.67
2022-10-18T19:35:30.096Z,76.51
2022-10-18T19:40:31.463Z,76.38
2022-10-18T19:45:32.868Z,76.37
2022-10-18T19:50:35.196Z,76.08
2022-10-18T19:55:36.584Z,76.10
2022-10-18T20:00:38.020Z,76.43
2022-10-18T20:05:39.352Z,76.77
2022-10-18T20:10:40.738Z,76.82
2022-10-18T20:15:42.129Z,76.95
2022-10-18T20:20:47.267Z,76.87
2022-10-18T20:25:57.490Z,76.57
2022-10-18T20:31:06.862Z,76.48
2022-10-18T20:36:13.616Z,76.86
2022-10-18T20:41:29.092Z,76.59
2022-10-18T20:46:32.459Z,76.55
2022-10-18T20:51:34.972Z,76.60
2022-10-18T20:56:38.534Z,76.79
2022-10-18T21:01:40.052Z,77.00
2022-10-18T21:06:43.641Z,76.94
2022-10-18T21:11:49.233Z,77.17
2022-10-18T21:16:52.364Z,76.95
2022-10-18T21:21:56.070Z,76.62
2022-10-18T21:26:57.440Z,77.06
2022-10-18T21:31:59.592Z,77.49
2022-10-18T21:37:00.910Z,77.53
2022-10-18T21:42:02.267Z,77.92
2022-10-18T21:47:03.623Z,78.16
2022-10-18T21:52:05.334Z,77.72
2022-10-18T21:57:06.719Z,77.88
2022-10-18T22:02:08.071Z,77.61
2022-10-18T22:07:09.410Z,77.41
2022-10-18T22:12:11.034Z,77.25
2022-10-18T22:17:12.471Z,77.13
2022-10-18T22:22:13.860Z,76.94
2022-10-18T22:27:15.219Z,77.00
2022-10-18T22:32:16.576Z,76.60
2022-10-18T22:37:17.936Z,76.62
2022-10-18T22:42:19.281Z,76.80
2022-10-18T22:47:20.611Z,76.92
2022-10-18T22:52:21.949Z,76.43
2022-10-18T22:57:23.379Z,76.61
2022-10-18T23:02:24.759Z,76.61
2022-10-18T23:07:26.190Z,76.21
2022-10-18T23:12:27.532Z,76.01
2022-10-18T23:17:28.898Z,76.03
2022-10-18T23:22:30.415Z,76.35
2022-10-18T23:27:31.947Z,76.42
2022-10-18T23:32:34.719Z,76.31
2022-10-18T23:37:36.722Z,76.11
2022-10-18T23:42:38.464Z,75.77
2022-10-18T23:47:39.827Z,76.24
2022-10-18T23:52:41.215Z,76.22
2022-10-18T23:57:42.580Z,76.47
